KDMO/DMO METAR and TAF weather

Enter ICAO airport designator
Station Type Date Time Source
KDMO METAR 2021/08/01 15:53 UTC NOAA

KDMO 011553Z AUTO 29004KT 7SM BKN012 24/21 A3012 RMK AO2 SLP190 T02440211


Station Type Date Time Source
KDMO Decoded METAR 2021/08/01 15:53 UTC NOAA

SEDALIA MEMORIAL AIRPORT, MO, United States (KDMO) 38-43N 93-10W 274M
Aug 01, 2021 - 11:53 AM EDT / 2021.08.01 1553 UTC
Wind: from the WNW (290 degrees) at 5 MPH (4 KT):0
Visibility: 7 mile(s):0
Sky conditions: mostly cloudy
Temperature: 75.9 F (24.4 C)
Dew Point: 70.0 F (21.1 C)
Relative Humidity: 81%
Pressure (altimeter): 30.12 in. Hg (1019 hPa)
ob: KDMO 011553Z AUTO 29004KT 7SM BKN012 24/21 A3012 RMK AO2 SLP190 T02440211
cycle: 16

Station Type Date Time Source
KDMO TAF UTC NOAA

Error!

Example: see airport list